sensor_id;sensor_type;location;lat;lon;timestamp;P1;durP1;ratioP1;P2;durP2;ratioP2
44919;SDS011;30655;53.094;6.072;2022-08-25T00:01:00;32.30;;;24.52;;
44919;SDS011;30655;53.094;6.072;2022-08-25T00:07:29;27.08;;;23.73;;
44919;SDS011;30655;53.094;6.072;2022-08-25T00:10:10;29.65;;;24.30;;
44919;SDS011;30655;53.094;6.072;2022-08-25T00:13:02;29.33;;;24.15;;
44919;SDS011;30655;53.094;6.072;2022-08-25T00:15:59;30.85;;;26.15;;
44919;SDS011;30655;53.094;6.072;2022-08-25T00:18:48;32.47;;;26.48;;
44919;SDS011;30655;53.094;6.072;2022-08-25T00:49:24;29.08;;;21.55;;
44919;SDS011;30655;53.094;6.072;2022-08-25T00:52:37;24.55;;;17.33;;
44919;SDS011;30655;53.094;6.072;2022-08-25T01:02:13;20.98;;;17.75;;
44919;SDS011;30655;53.094;6.072;2022-08-25T01:46:10;11.55;;;10.63;;
44919;SDS011;30655;53.094;6.072;2022-08-25T01:49:32;11.02;;;9.98;;
44919;SDS011;30655;53.094;6.072;2022-08-25T01:59:45;10.17;;;9.20;;
44919;SDS011;30655;53.094;6.072;2022-08-25T02:19:48;6.18;;;5.68;;
44919;SDS011;30655;53.094;6.072;2022-08-25T02:22:40;6.57;;;5.78;;
44919;SDS011;30655;53.094;6.072;2022-08-25T02:25:53;5.70;;;5.30;;
44919;SDS011;30655;53.094;6.072;2022-08-25T02:35:25;5.68;;;4.68;;
44919;SDS011;30655;53.094;6.072;2022-08-25T02:38:22;8.43;;;4.60;;
44919;SDS011;30655;53.094;6.072;2022-08-25T02:41:34;9.43;;;4.80;;
44919;SDS011;30655;53.094;6.072;2022-08-25T02:48:07;3.70;;;3.40;;
44919;SDS011;30655;53.094;6.072;2022-08-25T02:57:26;5.32;;;3.58;;
44919;SDS011;30655;53.094;6.072;2022-08-25T03:00:23;6.97;;;3.28;;
44919;SDS011;30655;53.094;6.072;2022-08-25T03:03:39;6.60;;;3.75;;
44919;SDS011;30655;53.094;6.072;2022-08-25T03:23:40;4.68;;;2.72;;
44919;SDS011;30655;53.094;6.072;2022-08-25T04:14:03;4.43;;;2.78;;
44919;SDS011;30655;53.094;6.072;2022-08-25T04:26:59;10.48;;;2.83;;
44919;SDS011;30655;53.094;6.072;2022-08-25T04:30:14;11.75;;;3.10;;
44919;SDS011;30655;53.094;6.072;2022-08-25T04:32:54;3.47;;;3.00;;
44919;SDS011;30655;53.094;6.072;2022-08-25T04:35:56;2.97;;;2.60;;
44919;SDS011;30655;53.094;6.072;2022-08-25T04:49:01;4.45;;;2.70;;
44919;SDS011;30655;53.094;6.072;2022-08-25T04:51:49;6.93;;;2.60;;
44919;SDS011;30655;53.094;6.072;2022-08-25T04:54:28;3.20;;;2.53;;
44919;SDS011;30655;53.094;6.072;2022-08-25T04:59:56;3.25;;;2.92;;
44919;SDS011;30655;53.094;6.072;2022-08-25T05:02:46;9.93;;;3.00;;
44919;SDS011;30655;53.094;6.072;2022-08-25T05:16:37;3.30;;;2.85;;
44919;SDS011;30655;53.094;6.072;2022-08-25T05:22:45;5.80;;;3.20;;
44919;SDS011;30655;53.094;6.072;2022-08-25T05:25:48;3.28;;;2.85;;
44919;SDS011;30655;53.094;6.072;2022-08-25T05:32:27;3.58;;;3.00;;
44919;SDS011;30655;53.094;6.072;2022-08-25T05:35:10;3.33;;;2.67;;
44919;SDS011;30655;53.094;6.072;2022-08-25T05:41:07;5.32;;;2.78;;
44919;SDS011;30655;53.094;6.072;2022-08-25T05:47:01;3.90;;;2.58;;
44919;SDS011;30655;53.094;6.072;2022-08-25T05:52:38;5.97;;;3.05;;
44919;SDS011;30655;53.094;6.072;2022-08-25T05:55:10;5.25;;;3.15;;
44919;SDS011;30655;53.094;6.072;2022-08-25T05:57:37;5.35;;;2.90;;
44919;SDS011;30655;53.094;6.072;2022-08-25T06:00:08;9.63;;;3.40;;
44919;SDS011;30655;53.094;6.072;2022-08-25T06:02:39;4.35;;;3.00;;
44919;SDS011;30655;53.094;6.072;2022-08-25T06:05:38;10.50;;;3.10;;
44919;SDS011;30655;53.094;6.072;2022-08-25T06:08:12;4.63;;;2.80;;
44919;SDS011;30655;53.094;6.072;2022-08-25T06:11:01;6.20;;;3.22;;
44919;SDS011;30655;53.094;6.072;2022-08-25T06:13:51;4.30;;;2.70;;
44919;SDS011;30655;53.094;6.072;2022-08-25T06:16:30;2.97;;;2.70;;
44919;SDS011;30655;53.094;6.072;2022-08-25T06:19:06;4.43;;;2.70;;
44919;SDS011;30655;53.094;6.072;2022-08-25T06:21:35;3.00;;;2.60;;
44919;SDS011;30655;53.094;6.072;2022-08-25T06:24:03;5.25;;;2.88;;
44919;SDS011;30655;53.094;6.072;2022-08-25T06:26:30;7.97;;;2.70;;
44919;SDS011;30655;53.094;6.072;2022-08-25T06:28:57;4.28;;;2.90;;
44919;SDS011;30655;53.094;6.072;2022-08-25T06:31:24;4.97;;;2.65;;
44919;SDS011;30655;53.094;6.072;2022-08-25T06:33:51;8.45;;;2.85;;
44919;SDS011;30655;53.094;6.072;2022-08-25T06:36:18;5.55;;;2.85;;
44919;SDS011;30655;53.094;6.072;2022-08-25T06:38:47;4.18;;;2.78;;
44919;SDS011;30655;53.094;6.072;2022-08-25T06:41:14;9.35;;;2.85;;
44919;SDS011;30655;53.094;6.072;2022-08-25T06:43:41;3.35;;;2.67;;
44919;SDS011;30655;53.094;6.072;2022-08-25T06:46:18;5.95;;;2.67;;
44919;SDS011;30655;53.094;6.072;2022-08-25T06:48:46;4.95;;;2.92;;
44919;SDS011;30655;53.094;6.072;2022-08-25T06:51:15;8.68;;;3.22;;
44919;SDS011;30655;53.094;6.072;2022-08-25T06:53:55;6.78;;;2.78;;
44919;SDS011;30655;53.094;6.072;2022-08-25T06:56:25;4.35;;;2.78;;
44919;SDS011;30655;53.094;6.072;2022-08-25T06:58:52;5.60;;;2.80;;
44919;SDS011;30655;53.094;6.072;2022-08-25T07:01:21;5.90;;;2.33;;
44919;SDS011;30655;53.094;6.072;2022-08-25T07:03:52;5.53;;;2.80;;
44919;SDS011;30655;53.094;6.072;2022-08-25T07:06:20;3.08;;;2.33;;
44919;SDS011;30655;53.094;6.072;2022-08-25T07:08:51;5.60;;;3.17;;
44919;SDS011;30655;53.094;6.072;2022-08-25T07:11:22;5.03;;;2.97;;
44919;SDS011;30655;53.094;6.072;2022-08-25T07:13:51;8.52;;;2.50;;
44919;SDS011;30655;53.094;6.072;2022-08-25T07:16:19;3.13;;;2.53;;
44919;SDS011;30655;53.094;6.072;2022-08-25T07:18:56;8.25;;;2.80;;
44919;SDS011;30655;53.094;6.072;2022-08-25T07:21:25;5.75;;;3.15;;
44919;SDS011;30655;53.094;6.072;2022-08-25T07:24:00;5.78;;;2.70;;
44919;SDS011;30655;53.094;6.072;2022-08-25T07:26:32;4.75;;;2.70;;
44919;SDS011;30655;53.094;6.072;2022-08-25T07:29:04;3.85;;;2.55;;
44919;SDS011;30655;53.094;6.072;2022-08-25T07:31:33;5.20;;;2.80;;
44919;SDS011;30655;53.094;6.072;2022-08-25T07:34:00;3.38;;;2.60;;
44919;SDS011;30655;53.094;6.072;2022-08-25T07:36:29;5.90;;;2.55;;
44919;SDS011;30655;53.094;6.072;2022-08-25T07:38:56;6.38;;;3.03;;
44919;SDS011;30655;53.094;6.072;2022-08-25T07:41:25;3.30;;;2.42;;
44919;SDS011;30655;53.094;6.072;2022-08-25T07:43:52;8.00;;;2.95;;
44919;SDS011;30655;53.094;6.072;2022-08-25T07:46:19;5.07;;;2.20;;
44919;SDS011;30655;53.094;6.072;2022-08-25T07:48:46;3.70;;;2.78;;
44919;SDS011;30655;53.094;6.072;2022-08-25T07:51:18;4.57;;;2.72;;
44919;SDS011;30655;53.094;6.072;2022-08-25T07:53:45;7.03;;;2.80;;
44919;SDS011;30655;53.094;6.072;2022-08-25T07:56:13;2.92;;;2.53;;
44919;SDS011;30655;53.094;6.072;2022-08-25T07:58:43;2.50;;;2.30;;
44919;SDS011;30655;53.094;6.072;2022-08-25T08:01:12;6.00;;;2.78;;
44919;SDS011;30655;53.094;6.072;2022-08-25T08:03:40;7.85;;;2.67;;
44919;SDS011;30655;53.094;6.072;2022-08-25T08:06:17;4.03;;;2.65;;
44919;SDS011;30655;53.094;6.072;2022-08-25T08:08:46;7.53;;;2.08;;
44919;SDS011;30655;53.094;6.072;2022-08-25T08:11:15;5.40;;;2.53;;
44919;SDS011;30655;53.094;6.072;2022-08-25T08:13:44;3.10;;;2.60;;
44919;SDS011;30655;53.094;6.072;2022-08-25T08:16:16;3.55;;;2.60;;
44919;SDS011;30655;53.094;6.072;2022-08-25T08:18:44;4.32;;;2.88;;
44919;SDS011;30655;53.094;6.072;2022-08-25T08:21:12;2.42;;;2.20;;
44919;SDS011;30655;53.094;6.072;2022-08-25T08:23:45;6.05;;;2.45;;
44919;SDS011;30655;53.094;6.072;2022-08-25T08:26:13;5.88;;;2.40;;
44919;SDS011;30655;53.094;6.072;2022-08-25T08:28:48;6.88;;;2.67;;
44919;SDS011;30655;53.094;6.072;2022-08-25T08:31:17;4.07;;;2.45;;
44919;SDS011;30655;53.094;6.072;2022-08-25T08:33:45;6.22;;;2.22;;
44919;SDS011;30655;53.094;6.072;2022-08-25T08:36:12;3.50;;;2.50;;
44919;SDS011;30655;53.094;6.072;2022-08-25T08:38:41;2.95;;;2.47;;
44919;SDS011;30655;53.094;6.072;2022-08-25T08:41:15;5.13;;;2.50;;
44919;SDS011;30655;53.094;6.072;2022-08-25T08:43:55;11.02;;;2.42;;
44919;SDS011;30655;53.094;6.072;2022-08-25T08:46:39;2.58;;;2.38;;
44919;SDS011;30655;53.094;6.072;2022-08-25T08:49:13;14.32;;;2.25;;
44919;SDS011;30655;53.094;6.072;2022-08-25T08:51:55;7.10;;;2.22;;
44919;SDS011;30655;53.094;6.072;2022-08-25T08:54:27;2.97;;;2.40;;
44919;SDS011;30655;53.094;6.072;2022-08-25T08:57:02;8.98;;;2.40;;
44919;SDS011;30655;53.094;6.072;2022-08-25T08:59:39;6.63;;;2.22;;
44919;SDS011;30655;53.094;6.072;2022-08-25T09:02:15;2.40;;;2.17;;
44919;SDS011;30655;53.094;6.072;2022-08-25T09:05:11;2.15;;;1.73;;
44919;SDS011;30655;53.094;6.072;2022-08-25T09:07:40;4.65;;;2.20;;
44919;SDS011;30655;53.094;6.072;2022-08-25T09:10:12;5.03;;;2.10;;
44919;SDS011;30655;53.094;6.072;2022-08-25T09:12:42;3.75;;;1.92;;
44919;SDS011;30655;53.094;6.072;2022-08-25T09:15:35;1.88;;;1.73;;
44919;SDS011;30655;53.094;6.072;2022-08-25T09:18:17;1.77;;;1.45;;
44919;SDS011;30655;53.094;6.072;2022-08-25T09:20:58;5.25;;;1.70;;
44919;SDS011;30655;53.094;6.072;2022-08-25T09:23:49;6.25;;;2.03;;
44919;SDS011;30655;53.094;6.072;2022-08-25T09:27:38;2.55;;;1.92;;
44919;SDS011;30655;53.094;6.072;2022-08-25T09:30:18;3.85;;;1.80;;
44919;SDS011;30655;53.094;6.072;2022-08-25T09:36:18;5.78;;;1.85;;
44919;SDS011;30655;53.094;6.072;2022-08-25T09:39:09;4.57;;;1.27;;
44919;SDS011;30655;53.094;6.072;2022-08-25T09:41:45;2.38;;;1.85;;
44919;SDS011;30655;53.094;6.072;2022-08-25T09:44:26;3.30;;;1.40;;
44919;SDS011;30655;53.094;6.072;2022-08-25T09:47:10;7.22;;;1.58;;
44919;SDS011;30655;53.094;6.072;2022-08-25T09:50:28;2.97;;;1.95;;
44919;SDS011;30655;53.094;6.072;2022-08-25T10:11:37;3.58;;;1.60;;
44919;SDS011;30655;53.094;6.072;2022-08-25T10:49:33;2.28;;;1.70;;
44919;SDS011;30655;53.094;6.072;2022-08-25T10:52:28;4.85;;;1.80;;
44919;SDS011;30655;53.094;6.072;2022-08-25T10:55:10;2.65;;;1.70;;
44919;SDS011;30655;53.094;6.072;2022-08-25T10:57:57;3.70;;;2.35;;
44919;SDS011;30655;53.094;6.072;2022-08-25T11:00:43;3.00;;;1.50;;
44919;SDS011;30655;53.094;6.072;2022-08-25T11:03:25;2.03;;;1.83;;
44919;SDS011;30655;53.094;6.072;2022-08-25T11:06:12;2.40;;;1.77;;
44919;SDS011;30655;53.094;6.072;2022-08-25T11:08:46;1.77;;;1.60;;
44919;SDS011;30655;53.094;6.072;2022-08-25T11:11:23;3.78;;;3.15;;
44919;SDS011;30655;53.094;6.072;2022-08-25T11:14:03;6.22;;;2.53;;
44919;SDS011;30655;53.094;6.072;2022-08-25T11:16:52;2.92;;;1.67;;
44919;SDS011;30655;53.094;6.072;2022-08-25T11:19:35;1.85;;;1.75;;
44919;SDS011;30655;53.094;6.072;2022-08-25T11:22:11;5.05;;;1.52;;
44919;SDS011;30655;53.094;6.072;2022-08-25T11:25:01;4.93;;;1.58;;
44919;SDS011;30655;53.094;6.072;2022-08-25T11:32:17;3.65;;;1.20;;
44919;SDS011;30655;53.094;6.072;2022-08-25T11:38:39;7.07;;;1.63;;
44919;SDS011;30655;53.094;6.072;2022-08-25T11:42:07;3.83;;;1.55;;
44919;SDS011;30655;53.094;6.072;2022-08-25T12:15:13;2.47;;;1.08;;
44919;SDS011;30655;53.094;6.072;2022-08-25T15:05:12;4.40;;;0.80;;
44919;SDS011;30655;53.094;6.072;2022-08-25T15:08:27;1.17;;;1.05;;
44919;SDS011;30655;53.094;6.072;2022-08-25T16:17:05;1.33;;;1.20;;
44919;SDS011;30655;53.094;6.072;2022-08-25T16:19:34;4.20;;;1.48;;
44919;SDS011;30655;53.094;6.072;2022-08-25T16:40:57;1.48;;;1.33;;
44919;SDS011;30655;53.094;6.072;2022-08-25T17:32:28;4.45;;;1.60;;
44919;SDS011;30655;53.094;6.072;2022-08-25T17:39:09;4.97;;;1.98;;
44919;SDS011;30655;53.094;6.072;2022-08-25T17:45:43;2.83;;;1.73;;
44919;SDS011;30655;53.094;6.072;2022-08-25T17:52:31;2.25;;;1.85;;
44919;SDS011;30655;53.094;6.072;2022-08-25T17:58:37;3.35;;;1.63;;
44919;SDS011;30655;53.094;6.072;2022-08-25T18:25:32;7.93;;;1.80;;
44919;SDS011;30655;53.094;6.072;2022-08-25T18:34:42;4.07;;;2.17;;
44919;SDS011;30655;53.094;6.072;2022-08-25T18:38:03;2.53;;;2.33;;
44919;SDS011;30655;53.094;6.072;2022-08-25T18:41:14;7.22;;;2.20;;
44919;SDS011;30655;53.094;6.072;2022-08-25T18:47:41;7.55;;;2.20;;
44919;SDS011;30655;53.094;6.072;2022-08-25T18:51:10;3.20;;;2.53;;
44919;SDS011;30655;53.094;6.072;2022-08-25T19:14:52;8.43;;;2.60;;
44919;SDS011;30655;53.094;6.072;2022-08-25T19:17:38;6.30;;;2.45;;
44919;SDS011;30655;53.094;6.072;2022-08-25T19:20:34;9.93;;;2.85;;
44919;SDS011;30655;53.094;6.072;2022-08-25T19:45:12;7.40;;;2.17;;
44919;SDS011;30655;53.094;6.072;2022-08-25T19:48:15;6.90;;;2.33;;
44919;SDS011;30655;53.094;6.072;2022-08-25T19:51:20;4.38;;;1.92;;
